createdAt,value
2023-03-21T00:00:40.627Z,82.51
2023-03-21T00:01:40.608Z,82.47
2023-03-21T00:02:40.694Z,82.41
2023-03-21T00:03:40.614Z,82.41
2023-03-21T00:04:50.924Z,82.10
2023-03-21T00:05:42.147Z,82.10
2023-03-21T00:06:40.559Z,82.31
2023-03-21T00:07:40.530Z,82.20
2023-03-21T00:08:40.538Z,82.31
2023-03-21T00:09:40.528Z,82.31
2023-03-21T00:10:43.923Z,82.10
2023-03-21T00:11:40.484Z,82.00
2023-03-21T00:12:40.468Z,82.20
2023-03-21T00:13:40.453Z,82.41
2023-03-21T00:14:40.478Z,82.31
2023-03-21T00:15:51.225Z,82.20
2023-03-21T00:16:41.567Z,82.41
2023-03-21T00:17:40.397Z,82.41
2023-03-21T00:18:40.398Z,82.31
2023-03-21T00:19:40.436Z,82.20
2023-03-21T00:20:40.368Z,82.41
2023-03-21T00:21:55.263Z,82.31
2023-03-21T00:22:41.349Z,82.20
2023-03-21T00:23:40.321Z,82.10
2023-03-21T00:24:40.350Z,82.10
2023-03-21T00:25:40.358Z,82.41
2023-03-21T00:26:40.293Z,82.51
2023-03-21T00:27:56.959Z,82.31
2023-03-21T00:28:41.784Z,82.20
2023-03-21T00:29:40.261Z,82.20
2023-03-21T00:30:40.236Z,82.31
2023-03-21T00:31:40.291Z,82.41
2023-03-21T00:32:55.266Z,82.31
2023-03-21T00:33:41.213Z,82.20
2023-03-21T00:34:54.427Z,82.20
2023-03-21T00:35:58.303Z,82.20
2023-03-21T00:36:41.193Z,82.41
2023-03-21T00:37:40.132Z,82.82
2023-03-21T00:38:40.127Z,83.33
2023-03-21T00:39:40.158Z,83.61
2023-03-21T00:40:48.787Z,83.85
2023-03-21T00:41:43.242Z,83.95
2023-03-21T00:42:40.087Z,83.75
2023-03-21T00:43:40.129Z,83.44
2023-03-21T00:44:40.080Z,82.62
2023-03-21T00:45:40.045Z,82.31
2023-03-21T00:46:51.277Z,82.31
2023-03-21T00:47:41.144Z,82.51
2023-03-21T00:48:40.024Z,82.62
2023-03-21T00:49:40.003Z,82.62
2023-03-21T00:50:39.967Z,82.51
2023-03-21T00:51:39.961Z,82.62
2023-03-21T00:52:41.296Z,82.62
2023-03-21T00:53:39.917Z,83.03
2023-03-21T00:54:39.942Z,83.33
2023-03-21T00:55:39.968Z,83.44
2023-03-21T00:56:39.878Z,83.44
2023-03-21T00:57:39.934Z,83.13
2023-03-21T00:58:39.871Z,82.92
2023-03-21T00:59:39.865Z,82.82
2023-03-21T01:00:39.902Z,83.03
2023-03-21T01:01:39.888Z,83.33
2023-03-21T01:02:40.801Z,83.54
2023-03-21T01:03:39.789Z,83.64
2023-03-21T01:04:39.790Z,83.23
2023-03-21T01:05:39.757Z,82.82
2023-03-21T01:06:39.770Z,82.82
2023-03-21T01:07:39.745Z,82.82
2023-03-21T01:08:55.021Z,82.82
2023-03-21T01:09:40.721Z,82.62
2023-03-21T01:10:39.688Z,82.62
2023-03-21T01:11:39.704Z,82.71
2023-03-21T01:12:39.677Z,82.62
2023-03-21T01:13:44.191Z,82.41
2023-03-21T01:14:40.660Z,82.31
2023-03-21T01:15:39.628Z,82.20
2023-03-21T01:16:39.621Z,82.00
2023-03-21T01:17:39.600Z,82.00
2023-03-21T01:18:39.586Z,82.10
2023-03-21T01:19:51.132Z,82.20
2023-03-21T01:20:40.557Z,82.31
2023-03-21T01:21:39.550Z,82.41
2023-03-21T01:22:39.538Z,82.62
2023-03-21T01:23:39.516Z,82.82
2023-03-21T01:24:50.204Z,82.82
2023-03-21T01:25:40.706Z,82.82
2023-03-21T01:26:39.485Z,83.03
2023-03-21T01:27:39.467Z,83.23
2023-03-21T01:28:39.503Z,83.54
2023-03-21T01:29:39.448Z,83.95
2023-03-21T01:30:41.998Z,84.36
2023-03-21T01:31:39.492Z,84.36
2023-03-21T01:32:39.410Z,84.56
2023-03-21T01:33:39.388Z,84.67
2023-03-21T01:34:39.389Z,84.56
2023-03-21T01:35:49.305Z,84.56
2023-03-21T01:36:40.387Z,84.88
2023-03-21T01:37:39.336Z,85.18
2023-03-21T01:38:39.324Z,85.28
2023-03-21T01:39:39.306Z,85.28
2023-03-21T01:40:39.324Z,85.28
2023-03-21T01:41:43.503Z,85.28
2023-03-21T01:42:40.269Z,85.60
2023-03-21T01:43:39.256Z,85.80
2023-03-21T01:44:39.256Z,86.00
2023-03-21T01:45:39.695Z,85.90
2023-03-21T01:46:49.623Z,86.00
2023-03-21T01:47:40.336Z,86.21
2023-03-21T01:48:39.188Z,86.42
2023-03-21T01:49:39.181Z,86.42
2023-03-21T01:50:39.175Z,86.11
2023-03-21T01:51:39.146Z,85.70
2023-03-21T01:52:39.510Z,85.80
2023-03-21T01:53:39.126Z,85.39
2023-03-21T01:54:39.106Z,84.98
2023-03-21T01:55:39.590Z,84.88
2023-03-21T01:56:39.086Z,84.88
2023-03-21T01:57:45.133Z,84.67
2023-03-21T01:58:40.057Z,84.26
2023-03-21T01:59:39.050Z,84.16
2023-03-21T02:00:39.091Z,83.95
2023-03-21T02:01:39.017Z,83.75
2023-03-21T02:02:39.008Z,83.23
2023-03-21T02:03:39.073Z,83.13
2023-03-21T02:04:38.989Z,83.33
2023-03-21T02:05:39.389Z,83.64
2023-03-21T02:06:38.946Z,83.85
2023-03-21T02:07:38.938Z,83.85
2023-03-21T02:08:40.091Z,83.75
2023-03-21T02:09:38.909Z,83.64
2023-03-21T02:10:38.923Z,83.85
2023-03-21T02:11:38.930Z,83.75
2023-03-21T02:12:38.875Z,83.85
2023-03-21T02:13:38.887Z,84.26
2023-03-21T02:14:38.844Z,84.56
2023-03-21T02:15:39.143Z,84.47
2023-03-21T02:16:38.854Z,84.56
2023-03-21T02:17:38.805Z,84.56
2023-03-21T02:18:39.032Z,84.98
2023-03-21T02:19:47.594Z,84.98
2023-03-21T02:20:39.795Z,84.67
2023-03-21T02:21:38.748Z,84.67
2023-03-21T02:22:38.736Z,84.77
2023-03-21T02:23:38.729Z,84.71
2023-03-21T02:24:39.994Z,84.67
2023-03-21T02:25:39.027Z,84.67
2023-03-21T02:26:42.526Z,84.77
2023-03-21T02:27:38.656Z,84.67
2023-03-21T02:28:38.655Z,84.67
2023-03-21T02:29:38.645Z,84.67
2023-03-21T02:30:50.952Z,84.67
2023-03-21T02:31:39.643Z,84.56
2023-03-21T02:32:38.605Z,84.47
2023-03-21T02:33:38.596Z,84.47
2023-03-21T02:34:38.576Z,84.47
2023-03-21T02:35:44.117Z,84.47
2023-03-21T02:36:39.616Z,84.71
2023-03-21T02:37:38.882Z,85.02
2023-03-21T02:38:38.536Z,84.91
2023-03-21T02:39:38.547Z,84.81
2023-03-21T02:40:38.715Z,84.71
2023-03-21T02:41:40.412Z,84.61
2023-03-21T02:42:38.478Z,84.71
2023-03-21T02:43:38.456Z,84.81
2023-03-21T02:44:38.447Z,84.61
2023-03-21T02:45:38.446Z,84.61
2023-03-21T02:46:45.327Z,84.81
2023-03-21T02:47:39.487Z,85.02
2023-03-21T02:48:50.146Z,85.02
2023-03-21T02:49:39.378Z,84.81
2023-03-21T02:50:38.581Z,84.50
2023-03-21T02:51:38.378Z,84.71
2023-03-21T02:52:39.833Z,85.02
2023-03-21T02:53:39.545Z,85.22
2023-03-21T02:54:47.492Z,85.22
2023-03-21T02:55:39.297Z,85.12
2023-03-21T02:56:38.309Z,84.91
2023-03-21T02:57:43.181Z,84.61
2023-03-21T02:58:39.258Z,84.40
2023-03-21T02:59:44.551Z,84.36
2023-03-21T03:00:39.518Z,84.50
2023-03-21T03:01:38.313Z,84.56
2023-03-21T03:02:38.246Z,84.67
2023-03-21T03:03:38.272Z,84.61
2023-03-21T03:04:38.230Z,84.50
2023-03-21T03:05:38.177Z,84.50
2023-03-21T03:06:38.163Z,84.71
2023-03-21T03:07:38.211Z,84.61
2023-03-21T03:08:45.251Z,84.91
2023-03-21T03:09:39.117Z,85.53
2023-03-21T03:10:38.448Z,85.94
2023-03-21T03:11:38.094Z,85.94
2023-03-21T03:12:38.096Z,86.05
2023-03-21T03:13:38.111Z,85.53
2023-03-21T03:14:52.983Z,85.43
2023-03-21T03:15:39.054Z,85.08
2023-03-21T03:16:38.019Z,85.43
2023-03-21T03:17:38.031Z,85.80
2023-03-21T03:18:37.992Z,85.74
2023-03-21T03:19:49.388Z,85.33
2023-03-21T03:20:39.382Z,85.22
2023-03-21T03:21:37.957Z,85.02
2023-03-21T03:22:37.963Z,85.02
2023-03-21T03:23:37.932Z,85.02
2023-03-21T03:24:37.920Z,85.02
2023-03-21T03:25:42.818Z,85.02
2023-03-21T03:26:38.895Z,85.02
2023-03-21T03:27:37.933Z,85.02
2023-03-21T03:28:37.895Z,85.02
2023-03-21T03:29:37.846Z,85.12
2023-03-21T03:30:43.410Z,85.33
2023-03-21T03:31:38.836Z,85.33
2023-03-21T03:32:37.830Z,85.43
2023-03-21T03:33:37.824Z,85.43
2023-03-21T03:34:37.780Z,85.43
2023-03-21T03:35:37.778Z,85.43
2023-03-21T03:36:37.793Z,85.33
2023-03-21T03:37:37.857Z,85.43
2023-03-21T03:38:37.750Z,85.43
2023-03-21T03:39:37.721Z,85.43
2023-03-21T03:40:38.048Z,85.33
2023-03-21T03:42:02.900Z,85.53
2023-03-21T03:42:38.678Z,85.53
2023-03-21T03:43:37.688Z,85.22
2023-03-21T03:44:37.646Z,84.91
2023-03-21T03:45:37.639Z,84.91
2023-03-21T03:46:37.674Z,84.91
2023-03-21T03:47:42.079Z,84.91
2023-03-21T03:48:38.634Z,85.02
2023-03-21T03:49:37.587Z,85.33
2023-03-21T03:50:37.818Z,85.53
2023-03-21T03:51:37.558Z,85.43
2023-03-21T03:52:42.024Z,85.43
2023-03-21T03:53:38.552Z,85.33
2023-03-21T03:54:37.516Z,85.22
2023-03-21T03:55:37.526Z,85.33
2023-03-21T03:56:37.479Z,85.53
2023-03-21T03:57:37.479Z,85.74
2023-03-21T03:58:45.298Z,85.63
2023-03-21T03:59:38.468Z,85.47
2023-03-21T04:00:37.607Z,85.57
2023-03-21T04:01:37.495Z,85.57
2023-03-21T04:02:37.453Z,85.68
2023-03-21T04:03:48.440Z,85.68
2023-03-21T04:04:38.534Z,85.88
2023-03-21T04:05:37.370Z,85.88
2023-03-21T04:06:37.351Z,85.78
2023-03-21T04:07:37.365Z,85.78
2023-03-21T04:08:37.323Z,85.78
2023-03-21T04:09:44.067Z,85.68
2023-03-21T04:10:38.804Z,85.57
2023-03-21T04:11:37.300Z,85.82
2023-03-21T04:12:37.272Z,85.92
2023-03-21T04:13:37.274Z,86.13
2023-03-21T04:14:44.433Z,85.92
2023-03-21T04:15:38.241Z,85.92
2023-03-21T04:16:37.301Z,86.02
2023-03-21T04:17:37.213Z,86.27
2023-03-21T04:18:37.211Z,86.27
2023-03-21T04:19:37.204Z,86.37
2023-03-21T04:20:37.618Z,86.27
2023-03-21T04:21:37.170Z,86.27
2023-03-21T04:22:37.155Z,86.27
2023-03-21T04:23:37.139Z,86.16
2023-03-21T04:24:37.143Z,86.10
2023-03-21T04:25:42.286Z,86.10
2023-03-21T04:26:38.111Z,86.10
2023-03-21T04:27:37.093Z,86.10
2023-03-21T04:28:37.225Z,86.10
2023-03-21T04:29:37.078Z,86.21
2023-03-21T04:30:37.783Z,86.15
2023-03-21T04:31:37.096Z,86.24
2023-03-21T04:32:37.005Z,86.24
2023-03-21T04:33:37.004Z,86.24
2023-03-21T04:34:37.010Z,86.15
2023-03-21T04:35:37.737Z,86.15
2023-03-21T04:36:36.943Z,86.24
2023-03-21T04:37:36.945Z,86.45
2023-03-21T04:38:36.939Z,86.55
2023-03-21T04:39:36.914Z,86.55
2023-03-21T04:40:37.200Z,86.55
2023-03-21T04:41:36.882Z,86.55
2023-03-21T04:42:36.873Z,86.55
2023-03-21T04:43:36.862Z,86.55
2023-03-21T04:44:36.855Z,86.66
2023-03-21T04:45:36.860Z,86.66
2023-03-21T04:46:36.820Z,86.80
2023-03-21T04:47:36.818Z,86.90
2023-03-21T04:48:36.802Z,86.90
2023-03-21T04:49:36.809Z,86.90
2023-03-21T04:50:37.044Z,86.90
2023-03-21T04:51:36.778Z,87.11
2023-03-21T04:52:36.760Z,87.32
2023-03-21T04:53:36.733Z,87.32
2023-03-21T04:54:36.738Z,87.21
2023-03-21T04:55:37.022Z,87.21
2023-03-21T04:56:36.682Z,87.32
2023-03-21T04:57:36.683Z,87.63
2023-03-21T04:58:36.660Z,87.93
2023-03-21T04:59:36.672Z,88.04
2023-03-21T05:00:36.620Z,88.14
2023-03-21T05:01:36.621Z,88.14
2023-03-21T05:02:36.600Z,87.83
2023-03-21T05:03:36.664Z,87.63
2023-03-21T05:04:36.579Z,87.63
2023-03-21T05:05:36.868Z,87.52
2023-03-21T05:06:36.583Z,87.52
2023-03-21T05:07:36.553Z,87.52
2023-03-21T05:08:36.620Z,87.63
2023-03-21T05:09:36.532Z,87.63
2023-03-21T05:10:36.501Z,87.66
2023-03-21T05:11:36.481Z,87.87
2023-03-21T05:12:36.460Z,88.08
2023-03-21T05:13:36.459Z,88.18
2023-03-21T05:14:36.470Z,88.18
2023-03-21T05:15:36.660Z,87.98
2023-03-21T05:16:36.638Z,87.98
2023-03-21T05:17:36.397Z,88.18
2023-03-21T05:18:36.565Z,88.39
2023-03-21T05:19:36.507Z,88.49
2023-03-21T05:20:36.377Z,88.29
2023-03-21T05:21:36.348Z,88.18
2023-03-21T05:22:36.359Z,88.29
2023-03-21T05:23:36.319Z,88.39
2023-03-21T05:24:36.300Z,88.39
2023-03-21T05:25:36.629Z,88.29
2023-03-21T05:27:28.709Z,88.08
2023-03-21T05:28:28.659Z,88.08
2023-03-21T05:29:28.678Z,88.39
2023-03-21T05:30:28.662Z,88.59
2023-03-21T05:31:28.637Z,88.59
2023-03-21T05:32:28.610Z,88.45
2023-03-21T05:33:28.613Z,88.45
2023-03-21T05:34:28.597Z,88.56
2023-03-21T05:35:28.598Z,88.56
2023-03-21T05:36:28.576Z,88.76
2023-03-21T05:37:28.558Z,88.86
2023-03-21T05:38:28.537Z,88.96
2023-03-21T05:39:28.530Z,88.96
2023-03-21T05:40:28.526Z,88.96
2023-03-21T05:41:28.497Z,88.96
2023-03-21T05:42:28.499Z,88.96
2023-03-21T05:43:28.469Z,88.92
2023-03-21T05:44:28.457Z,88.92
2023-03-21T05:45:28.468Z,88.82
2023-03-21T05:46:28.479Z,88.82
2023-03-21T05:47:28.419Z,88.72
2023-03-21T05:48:28.406Z,88.72
2023-03-21T05:49:28.407Z,88.62
2023-03-21T05:50:28.397Z,88.57
2023-03-21T05:51:28.380Z,88.57
2023-03-21T05:52:28.346Z,88.57
2023-03-21T05:53:28.337Z,88.57
2023-03-21T05:54:28.329Z,88.37
2023-03-21T05:55:28.328Z,88.37
2023-03-21T05:56:28.302Z,88.47
2023-03-21T05:57:28.291Z,88.68
2023-03-21T05:58:28.270Z,88.89
2023-03-21T05:59:28.259Z,88.89
2023-03-21T06:00:30.404Z,88.68
2023-03-21T06:01:28.235Z,88.47
2023-03-21T06:02:28.258Z,88.57
2023-03-21T06:03:28.362Z,88.53
2023-03-21T06:04:28.195Z,88.53
2023-03-21T06:05:28.195Z,88.64
2023-03-21T06:06:28.160Z,88.64
2023-03-21T06:07:28.150Z,88.53
2023-03-21T06:08:28.130Z,88.33
2023-03-21T06:09:28.130Z,88.33
2023-03-21T06:10:28.147Z,88.33
2023-03-21T06:11:28.100Z,88.43
2023-03-21T06:12:28.080Z,88.33
2023-03-21T06:13:28.070Z,88.02
2023-03-21T06:14:28.073Z,87.77
2023-03-21T06:15:28.083Z,87.46
2023-03-21T06:16:28.064Z,93.49
2023-03-21T06:17:28.025Z,99.99
2023-03-21T06:18:28.012Z,99.99
2023-03-21T06:19:27.998Z,99.99
2023-03-21T06:20:28.012Z,98.65
2023-03-21T06:21:27.954Z,95.90
2023-03-21T06:22:27.983Z,92.39
2023-03-21T06:23:27.942Z,90.31
2023-03-21T06:24:27.931Z,91.89
2023-03-21T06:25:27.931Z,90.22
2023-03-21T06:26:27.915Z,86.51
2023-03-21T06:27:27.910Z,84.64
2023-03-21T06:28:27.890Z,83.92
2023-03-21T06:29:27.853Z,78.63
2023-03-21T06:30:27.895Z,81.27
2023-03-21T06:31:27.871Z,80.46
2023-03-21T06:32:27.821Z,80.52
2023-03-21T06:33:27.832Z,79.30
2023-03-21T06:34:27.800Z,78.49
2023-03-21T06:35:27.798Z,79.20
2023-03-21T06:36:27.761Z,75.13
2023-03-21T06:37:27.760Z,69.39
2023-03-21T06:38:27.743Z,70.00
2023-03-21T06:39:27.740Z,71.53
2023-03-21T06:40:27.736Z,73.54
2023-03-21T06:41:27.721Z,74.90
2023-03-21T06:42:27.670Z,76.27
2023-03-21T06:43:28.626Z,77.43
2023-03-21T06:44:27.668Z,78.28
2023-03-21T06:45:27.669Z,78.74
2023-03-21T06:46:27.688Z,79.38
2023-03-21T06:47:27.644Z,80.21
2023-03-21T06:48:27.609Z,81.06
2023-03-21T06:49:27.611Z,81.78
2023-03-21T06:50:27.619Z,82.13
2023-03-21T06:51:27.579Z,82.33
2023-03-21T06:52:27.550Z,82.78
2023-03-21T06:53:27.655Z,83.19
2023-03-21T06:54:27.539Z,83.19
2023-03-21T06:55:27.540Z,83.40
2023-03-21T06:56:27.504Z,84.05
2023-03-21T06:57:27.490Z,84.26
2023-03-21T06:58:27.487Z,84.77
2023-03-21T06:59:27.468Z,84.88
2023-03-21T07:00:27.581Z,84.77
2023-03-21T07:01:27.462Z,84.98
2023-03-21T07:02:27.552Z,85.39
2023-03-21T07:03:27.427Z,85.49
2023-03-21T07:04:27.410Z,85.39
2023-03-21T07:05:27.397Z,85.14
2023-03-21T07:06:27.422Z,84.94
2023-03-21T07:07:27.386Z,85.04
2023-03-21T07:08:27.352Z,85.04
2023-03-21T07:09:27.331Z,85.35
2023-03-21T07:10:27.327Z,85.35
2023-03-21T07:11:27.356Z,85.35
2023-03-21T07:12:27.327Z,85.35
2023-03-21T07:13:27.283Z,85.35
2023-03-21T07:14:27.259Z,85.04
2023-03-21T07:15:27.256Z,84.90
2023-03-21T07:16:27.251Z,84.80
2023-03-21T07:17:27.229Z,84.80
2023-03-21T07:18:27.211Z,84.80
2023-03-21T07:19:27.203Z,84.69
2023-03-21T07:20:27.203Z,84.80
2023-03-21T07:21:27.208Z,85.11
2023-03-21T07:22:27.162Z,85.21
2023-03-21T07:23:27.150Z,85.11
2023-03-21T07:24:27.151Z,84.80
2023-03-21T07:25:27.192Z,84.80
2023-03-21T07:26:27.128Z,84.59
2023-03-21T07:27:27.095Z,84.69
2023-03-21T07:28:27.083Z,84.69
2023-03-21T07:29:27.109Z,84.69
2023-03-21T07:30:27.069Z,84.39
2023-03-21T07:31:27.172Z,84.04
2023-03-21T07:32:27.036Z,84.25
2023-03-21T07:33:27.025Z,84.66
2023-03-21T07:34:27.013Z,84.86
2023-03-21T07:35:26.984Z,84.76
2023-03-21T07:36:27.005Z,84.45
2023-03-21T07:37:26.965Z,84.04
2023-03-21T07:38:27.024Z,83.73
2023-03-21T07:39:26.946Z,83.73
2023-03-21T07:40:26.922Z,83.53
2023-03-21T07:41:26.924Z,83.83
2023-03-21T07:42:26.905Z,84.04
2023-03-21T07:43:26.874Z,84.25
2023-03-21T07:44:26.883Z,84.34
2023-03-21T07:45:26.851Z,84.25
2023-03-21T07:46:26.919Z,84.04
2023-03-21T07:47:26.837Z,83.73
2023-03-21T07:48:26.825Z,83.83
2023-03-21T07:49:26.807Z,83.94
2023-03-21T07:50:26.800Z,83.94
2023-03-21T07:51:26.812Z,83.69
2023-03-21T07:52:27.032Z,83.69
2023-03-21T07:53:31.035Z,83.69
2023-03-21T07:54:27.772Z,83.69
2023-03-21T07:55:26.732Z,83.69
2023-03-21T07:56:26.734Z,83.28
2023-03-21T07:57:26.710Z,83.28
2023-03-21T07:58:26.689Z,83.49
2023-03-21T07:59:26.672Z,83.49
2023-03-21T08:00:26.720Z,83.18
2023-03-21T08:01:26.662Z,83.07
2023-03-21T08:02:26.669Z,82.83
2023-03-21T08:03:26.700Z,83.14
2023-03-21T08:04:26.619Z,83.04
2023-03-21T08:05:26.605Z,82.93
2023-03-21T08:06:26.603Z,82.83
2023-03-21T08:07:26.574Z,82.83
2023-03-21T08:08:26.558Z,82.93
2023-03-21T08:09:26.542Z,82.63
2023-03-21T08:10:26.573Z,82.42
2023-03-21T08:11:26.543Z,82.53
2023-03-21T08:12:26.510Z,82.67
2023-03-21T08:13:26.490Z,82.87
2023-03-21T08:14:26.491Z,83.14
2023-03-21T08:15:26.491Z,83.45
2023-03-21T08:16:26.496Z,83.34
2023-03-21T08:17:26.431Z,83.25
2023-03-21T08:18:26.421Z,82.83
2023-03-21T08:19:26.404Z,82.73
2023-03-21T08:20:26.402Z,82.83
2023-03-21T08:21:26.402Z,82.63
2023-03-21T08:22:26.384Z,82.53
2023-03-21T08:23:26.375Z,82.73
2023-03-21T08:24:26.363Z,82.93
2023-03-21T08:25:26.333Z,82.83
2023-03-21T08:26:26.343Z,83.25
2023-03-21T08:27:26.301Z,83.14
2023-03-21T08:28:26.304Z,82.83
2023-03-21T08:29:26.284Z,82.93
2023-03-21T08:30:26.307Z,83.76
2023-03-21T08:31:26.365Z,84.47
2023-03-21T08:32:26.256Z,84.58
2023-03-21T08:33:26.234Z,84.68
2023-03-21T08:34:26.239Z,84.88
2023-03-21T08:35:26.191Z,84.37
2023-03-21T08:36:26.195Z,84.31
2023-03-21T08:37:26.195Z,84.20
2023-03-21T08:38:26.165Z,84.31
2023-03-21T08:39:26.197Z,84.82
2023-03-21T08:40:26.269Z,84.82
2023-03-21T08:41:26.122Z,85.54
2023-03-21T08:42:26.136Z,85.44
2023-03-21T08:43:26.102Z,85.74
2023-03-21T08:44:26.097Z,85.91
2023-03-21T08:45:26.076Z,86.32
2023-03-21T08:46:26.088Z,86.52
2023-03-21T08:47:26.062Z,86.63
2023-03-21T08:48:26.074Z,86.93
2023-03-21T08:49:26.030Z,86.52
2023-03-21T08:50:26.072Z,86.01
2023-03-21T08:51:25.990Z,85.80
2023-03-21T08:52:26.017Z,85.39
2023-03-21T08:53:25.965Z,85.71
2023-03-21T08:54:25.967Z,85.80
2023-03-21T08:55:25.944Z,86.01
2023-03-21T08:56:25.936Z,86.52
2023-03-21T08:57:25.946Z,86.73
2023-03-21T08:58:25.914Z,86.93
2023-03-21T08:59:25.907Z,85.91
2023-03-21T09:00:25.909Z,85.91
2023-03-21T09:01:25.897Z,86.01
2023-03-21T09:02:25.882Z,86.28
2023-03-21T09:03:25.834Z,86.48
2023-03-21T09:04:25.871Z,86.69
2023-03-21T09:05:25.812Z,86.58
2023-03-21T09:06:25.806Z,86.38
2023-03-21T09:07:25.798Z,85.87
2023-03-21T09:08:25.775Z,86.07
2023-03-21T09:09:25.768Z,86.58
2023-03-21T09:10:25.792Z,87.10
2023-03-21T09:11:25.735Z,87.41
2023-03-21T09:12:25.735Z,87.71
2023-03-21T09:13:25.706Z,87.92
2023-03-21T09:14:28.814Z,87.61
2023-03-21T09:15:25.714Z,87.51
2023-03-21T09:16:25.804Z,87.61
2023-03-21T09:17:25.658Z,88.12
2023-03-21T09:18:25.654Z,88.43
2023-03-21T09:19:25.627Z,88.84
2023-03-21T09:20:25.617Z,89.04
2023-03-21T09:21:25.597Z,89.45
2023-03-21T09:22:25.608Z,89.76
2023-03-21T09:23:25.566Z,89.66
2023-03-21T09:24:25.577Z,89.87
2023-03-21T09:25:25.577Z,90.37
2023-03-21T09:26:25.538Z,90.28
2023-03-21T09:27:25.533Z,89.97
2023-03-21T09:28:25.525Z,89.97
2023-03-21T09:29:25.496Z,89.66
2023-03-21T09:30:26.429Z,89.45
2023-03-21T09:31:25.511Z,89.45
2023-03-21T09:32:25.481Z,89.56
2023-03-21T09:33:25.452Z,89.66
2023-03-21T09:34:25.447Z,90.07
2023-03-21T09:35:25.426Z,90.58
2023-03-21T09:36:25.461Z,90.79
2023-03-21T09:37:25.413Z,90.79
2023-03-21T09:38:25.378Z,90.69
2023-03-21T09:39:25.369Z,90.28
2023-03-21T09:40:25.358Z,90.07
2023-03-21T09:41:25.370Z,90.17
2023-03-21T09:42:25.496Z,90.54
2023-03-21T09:43:25.335Z,90.64
2023-03-21T09:44:25.331Z,90.44
2023-03-21T09:45:25.305Z,90.64
2023-03-21T09:46:25.363Z,90.84
2023-03-21T09:47:25.449Z,91.05
2023-03-21T09:48:25.258Z,91.16
2023-03-21T09:49:25.297Z,90.95
2023-03-21T09:50:25.230Z,90.75
2023-03-21T09:51:25.207Z,90.95
2023-03-21T09:52:25.220Z,90.84
2023-03-21T09:53:25.177Z,91.36
2023-03-21T09:54:25.182Z,91.46
2023-03-21T09:55:25.137Z,91.67
2023-03-21T09:56:25.147Z,92.18
2023-03-21T09:57:25.148Z,92.18
2023-03-21T09:58:25.117Z,92.03
2023-03-21T09:59:25.114Z,92.14
2023-03-21T10:00:25.101Z,92.44
2023-03-21T10:01:25.067Z,92.44
2023-03-21T10:02:25.104Z,91.83
2023-03-21T10:03:25.037Z,91.01
2023-03-21T10:04:25.121Z,90.70
2023-03-21T10:05:25.023Z,90.50
2023-03-21T10:06:25.013Z,90.50
2023-03-21T10:07:24.985Z,89.98
2023-03-21T10:08:25.003Z,89.68
2023-03-21T10:09:24.981Z,89.37
2023-03-21T10:10:24.969Z,89.37
2023-03-21T10:11:25.455Z,89.27
2023-03-21T10:12:24.963Z,89.06
2023-03-21T10:13:24.924Z,88.82
2023-03-21T10:14:24.908Z,88.71
2023-03-21T10:15:24.879Z,88.62
2023-03-21T10:16:24.902Z,88.82
2023-03-21T10:17:24.845Z,88.82
2023-03-21T10:18:24.878Z,88.62
2023-03-21T10:19:24.826Z,88.71
2023-03-21T10:20:24.832Z,88.92
2023-03-21T10:21:51.350Z,89.12
2023-03-21T10:22:25.796Z,89.03
2023-03-21T10:23:24.795Z,89.12
2023-03-21T10:24:24.783Z,88.82
2023-03-21T10:25:24.744Z,88.51
2023-03-21T10:26:24.754Z,88.41
2023-03-21T10:27:24.725Z,88.71
2023-03-21T10:28:24.732Z,88.92
2023-03-21T10:29:24.736Z,89.03
2023-03-21T10:30:24.707Z,89.03
2023-03-21T10:31:24.748Z,88.82
2023-03-21T10:32:24.664Z,88.41
2023-03-21T10:33:24.722Z,88.31
2023-03-21T10:34:24.634Z,88.20
2023-03-21T10:35:24.621Z,88.41
2023-03-21T10:36:24.621Z,88.82
2023-03-21T10:37:24.589Z,89.03
2023-03-21T10:38:24.609Z,88.92
2023-03-21T10:39:24.574Z,88.62
2023-03-21T10:40:24.561Z,88.62
2023-03-21T10:41:24.537Z,89.53
2023-03-21T10:42:24.543Z,89.84
2023-03-21T10:43:24.531Z,89.94
2023-03-21T10:44:24.504Z,89.84
2023-03-21T10:45:24.486Z,89.64
2023-03-21T10:46:24.632Z,89.43
2023-03-21T10:47:24.805Z,89.43
2023-03-21T10:48:24.561Z,89.74
2023-03-21T10:49:24.433Z,90.15
2023-03-21T10:50:24.451Z,90.56
2023-03-21T10:51:24.411Z,90.56
2023-03-21T10:52:24.404Z,90.25
2023-03-21T10:53:24.396Z,90.15
2023-03-21T10:54:24.372Z,89.94
2023-03-21T10:55:24.370Z,89.74
2023-03-21T10:56:24.348Z,89.53
2023-03-21T10:57:24.334Z,89.53
2023-03-21T10:58:24.325Z,89.84
2023-03-21T10:59:24.310Z,90.05
2023-03-21T11:00:24.289Z,90.15
2023-03-21T11:01:24.321Z,90.11
2023-03-21T11:02:24.365Z,90.25
2023-03-21T11:03:24.245Z,90.41
2023-03-21T11:04:24.244Z,90.52
2023-03-21T11:05:24.226Z,90.62
2023-03-21T11:06:24.208Z,90.72
2023-03-21T11:07:24.192Z,90.72
2023-03-21T11:08:24.193Z,90.21
2023-03-21T11:09:24.187Z,89.90
2023-03-21T11:10:28.841Z,89.80
2023-03-21T11:11:25.143Z,89.80
2023-03-21T11:12:24.136Z,89.70
2023-03-21T11:13:24.120Z,89.50
2023-03-21T11:14:24.135Z,90.00
2023-03-21T11:15:24.119Z,90.11
2023-03-21T11:16:24.129Z,90.00
2023-03-21T11:17:24.614Z,89.90
2023-03-21T11:18:24.060Z,89.39
2023-03-21T11:19:24.051Z,89.59
2023-03-21T11:20:24.045Z,90.05
2023-03-21T11:21:24.014Z,90.15
2023-03-21T11:22:24.009Z,90.15
2023-03-21T11:23:23.983Z,90.36
2023-03-21T11:24:24.013Z,90.15
2023-03-21T11:25:23.976Z,89.64
2023-03-21T11:26:24.010Z,88.71
2023-03-21T11:27:23.932Z,88.51
2023-03-21T11:28:23.929Z,88.62
2023-03-21T11:29:23.935Z,88.92
2023-03-21T11:30:23.907Z,89.23
2023-03-21T11:31:23.926Z,89.23
2023-03-21T11:32:23.896Z,89.33
2023-03-21T11:33:23.864Z,89.53
2023-03-21T11:34:23.864Z,89.64
2023-03-21T11:35:23.867Z,89.53
2023-03-21T11:36:23.887Z,89.33
2023-03-21T11:37:23.811Z,89.43
2023-03-21T11:38:23.794Z,89.94
2023-03-21T11:39:23.813Z,89.74
2023-03-21T11:40:23.806Z,89.43
2023-03-21T11:41:23.762Z,89.43
2023-03-21T11:42:23.738Z,89.53
2023-03-21T11:43:23.755Z,89.64
2023-03-21T11:44:23.713Z,89.94
2023-03-21T11:45:23.717Z,90.05
2023-03-21T11:46:23.698Z,90.25
2023-03-21T11:47:23.685Z,90.15
2023-03-21T11:48:23.839Z,89.94
2023-03-21T11:49:23.654Z,89.74
2023-03-21T11:50:23.644Z,89.74
2023-03-21T11:51:23.624Z,89.94
2023-03-21T11:52:23.622Z,89.84
2023-03-21T11:53:23.595Z,89.74
2023-03-21T11:54:23.592Z,89.74
2023-03-21T11:55:30.709Z,89.84
2023-03-21T11:56:23.557Z,89.94
2023-03-21T11:57:23.550Z,89.94
2023-03-21T11:58:23.546Z,90.15
2023-03-21T11:59:23.566Z,90.45
2023-03-21T12:00:23.663Z,90.56
2023-03-21T12:01:23.489Z,90.56
2023-03-21T12:02:23.518Z,90.36
2023-03-21T12:03:23.521Z,90.25
2023-03-21T12:04:23.479Z,90.56
2023-03-21T12:05:23.468Z,91.27
2023-03-21T12:06:23.434Z,91.78
2023-03-21T12:07:23.417Z,91.78
2023-03-21T12:08:23.409Z,91.78
2023-03-21T12:09:23.393Z,91.78
2023-03-21T12:10:23.367Z,91.69
2023-03-21T12:11:23.378Z,91.89
2023-03-21T12:12:30.024Z,92.10
2023-03-21T12:13:24.326Z,92.19
2023-03-21T12:14:23.316Z,92.30
2023-03-21T12:15:23.309Z,92.30
2023-03-21T12:16:23.406Z,92.30
2023-03-21T12:17:23.282Z,92.40
2023-03-21T12:18:23.267Z,92.40
2023-03-21T12:19:23.272Z,92.60
2023-03-21T12:20:23.238Z,92.71
2023-03-21T12:21:23.264Z,92.81
2023-03-21T12:22:23.190Z,93.01
2023-03-21T12:23:23.386Z,93.12
2023-03-21T12:24:23.184Z,93.22
2023-03-21T12:25:23.183Z,93.43
2023-03-21T12:26:23.182Z,93.52
2023-03-21T12:27:23.154Z,93.43
2023-03-21T12:28:32.037Z,93.63
2023-03-21T12:29:24.144Z,93.52
2023-03-21T12:30:23.160Z,93.32
2023-03-21T12:31:23.175Z,93.12
2023-03-21T12:32:23.086Z,93.12
2023-03-21T12:33:23.068Z,93.22
2023-03-21T12:34:23.044Z,93.32
2023-03-21T12:35:23.045Z,93.12
2023-03-21T12:36:23.077Z,92.75
2023-03-21T12:37:23.023Z,92.50
2023-03-21T12:38:22.994Z,92.55
2023-03-21T12:39:22.986Z,92.50
2023-03-21T12:40:22.987Z,92.50
2023-03-21T12:41:22.957Z,92.50
2023-03-21T12:42:22.989Z,92.40
2023-03-21T12:43:22.946Z,92.10
2023-03-21T12:44:22.951Z,92.10
2023-03-21T12:45:23.770Z,91.99
2023-03-21T12:46:23.001Z,91.99
2023-03-21T12:47:22.905Z,92.10
2023-03-21T12:48:22.910Z,92.30
2023-03-21T12:49:22.847Z,92.50
2023-03-21T12:50:22.825Z,92.71
2023-03-21T12:51:22.841Z,92.81
2023-03-21T12:52:22.825Z,92.91
2023-03-21T12:53:22.795Z,93.01